Time;durP1;ratioP1;P1;durP2;ratioP2;P2;SDS_P1;SDS_P2;PMS_P1;PMS_P2;Temp;Humidity;BMP_temperature;BMP_pressure;BME280_temperature;BME280_humidity;BME280_pressure;Samples;Min_cycle;Max_cycle;Signal;HPM_P1;HPM_P2
2022/08/28 00:04:07;;;;;;;17.37;12.33;;;27.60;99.90;;;;;;1674945;83;21194;-84
2022/08/28 00:06:38;;;;;;;20.17;12.75;;;27.60;99.90;;;;;;1811784;75;21072;-85
2022/08/28 00:10:33;;;;;;;19.05;12.93;;;27.60;99.90;;;;;;1890847;75;21159;-86
2022/08/28 00:11:51;;;;;;;19.73;12.70;;;27.60;99.90;;;;;;1839017;76;21171;-86
2022/08/28 00:14:27;;;;;;;17.07;11.68;;;27.70;99.90;;;;;;1894792;74;21170;-85
2022/08/28 00:20:46;;;;;;;16.52;11.83;;;27.70;99.90;;;;;;1703521;81;21202;-86
2022/08/28 00:23:34;;;;;;;;;;;;;;;;;;;;;
2022/08/28 00:40:03;;;;;;;10.58;7.08;;;27.80;99.90;;;;;;1933251;73;22183;-84
2022/08/28 00:42:37;;;;;;;9.48;6.80;;;28.00;99.90;;;;;;1915188;74;21145;-84
2022/08/28 00:45:08;;;;;;;12.98;7.83;;;28.00;99.90;;;;;;1896218;73;21095;-85
2022/08/28 00:47:39;;;;;;;12.53;7.35;;;28.00;99.90;;;;;;1898144;75;21189;-85
2022/08/28 00:50:16;;;;;;;10.40;7.33;;;28.00;99.90;;;;;;1909929;74;21107;-85
2022/08/28 00:52:50;;;;;;;11.80;7.03;;;28.10;99.90;;;;;;1895816;73;21119;-85
2022/08/28 00:55:25;;;;;;;10.63;7.10;;;28.10;99.90;;;;;;1905093;75;21205;-86
2022/08/28 00:58:14;;;;;;;8.30;6.12;;;28.20;99.90;;;;;;1922296;74;21080;-85
2022/08/28 01:00:48;;;;;;;7.33;5.60;;;28.20;99.90;;;;;;1862568;76;21124;-84
2022/08/28 01:03:19;;;;;;;11.75;6.03;;;28.30;99.90;;;;;;1900054;73;21147;-84
2022/08/28 01:05:53;;;;;;;8.15;5.70;;;28.30;99.90;;;;;;1906141;75;21124;-84
2022/08/28 01:08:29;;;;;;;9.63;5.87;;;28.30;99.90;;;;;;1895081;74;21104;-86
2022/08/28 01:11:06;;;;;;;8.05;5.33;;;28.40;99.90;;;;;;1906023;74;21527;-85
2022/08/28 01:13:39;;;;;;;12.20;7.25;;;28.40;99.90;;;;;;1912196;73;21225;-85
2022/08/28 01:16:14;;;;;;;9.00;5.43;;;28.40;99.90;;;;;;1898487;75;21521;-84
2022/08/28 01:18:48;;;;;;;7.20;4.75;;;28.50;99.90;;;;;;1906104;75;21124;-85
2022/08/28 01:21:19;;;;;;;7.55;5.05;;;28.50;99.90;;;;;;1913067;75;21225;-85
2022/08/28 01:23:53;;;;;;;6.50;4.30;;;28.60;99.90;;;;;;1906460;73;21128;-85
2022/08/28 01:26:24;;;;;;;7.22;4.50;;;28.60;99.90;;;;;;1911777;75;21124;-84
2022/08/28 01:28:59;;;;;;;6.40;4.17;;;28.60;99.90;;;;;;1841464;76;21167;-85
2022/08/28 01:31:31;;;;;;;6.22;4.47;;;28.70;99.90;;;;;;1901449;75;21182;-85
2022/08/28 01:34:03;;;;;;;6.97;4.40;;;28.70;99.90;;;;;;1858988;75;21615;-84
2022/08/28 01:36:35;;;;;;;9.78;4.58;;;28.80;99.90;;;;;;1898938;73;21179;-83
2022/08/28 01:39:08;;;;;;;8.25;4.15;;;28.80;99.90;;;;;;1904691;74;21258;-85
2022/08/28 01:41:44;;;;;;;7.62;4.47;;;28.90;99.90;;;;;;1906128;74;21428;-84
2022/08/28 01:48:52;;;;;;;7.72;3.90;;;29.00;99.90;;;;;;1858593;77;21185;-85
2022/08/28 01:51:20;;;;;;;9.20;4.67;;;29.00;99.90;;;;;;1802345;78;21256;-84
2022/08/28 01:53:54;;;;;;;7.03;4.40;;;29.10;99.90;;;;;;1841069;76;21119;-84
2022/08/28 01:57:04;;;;;;;7.22;4.10;;;29.10;99.90;;;;;;1854589;77;21081;-83
2022/08/28 01:59:09;;;;;;;7.67;4.37;;;29.10;99.90;;;;;;1828845;76;21194;-85
2022/08/28 02:01:42;;;;;;;8.18;4.87;;;29.10;99.90;;;;;;1855845;76;21201;-84
2022/08/28 02:04:13;;;;;;;7.42;4.67;;;29.00;99.90;;;;;;1851952;76;21567;-84
2022/08/28 02:06:49;;;;;;;6.25;4.00;;;29.00;99.90;;;;;;1851971;76;21630;-83
2022/08/28 02:09:42;;;;;;;5.42;3.90;;;29.00;99.90;;;;;;1856537;76;21462;-85
2022/08/28 02:12:02;;;;;;;5.97;3.30;;;29.00;99.70;;;;;;1853436;77;21182;-84
2022/08/28 02:15:03;;;;;;;;;;;;;;;;;;;;;
2022/08/28 02:17:39;;;;;;;5.45;3.80;;;29.00;99.60;;;;;;1790151;78;21158;-84
2022/08/28 02:20:12;;;;;;;6.92;3.72;;;29.00;99.60;;;;;;1747567;80;21335;-83
2022/08/28 02:22:54;;;;;;;6.25;4.00;;;29.00;99.70;;;;;;1795412;79;21239;-84
2022/08/28 02:25:28;;;;;;;6.90;3.83;;;29.00;99.50;;;;;;1786333;79;21248;-72
2022/08/28 02:28:01;;;;;;;7.20;4.03;;;29.00;99.50;;;;;;1809750;79;21292;-71
2022/08/28 02:30:32;;;;;;;6.58;3.75;;;29.00;99.40;;;;;;1810610;78;21249;-70
2022/08/28 02:33:03;;;;;;;5.40;3.90;;;29.10;99.50;;;;;;1812998;79;21204;-71
2022/08/28 02:35:34;;;;;;;10.10;3.92;;;29.10;99.30;;;;;;1809232;79;21789;-70
2022/08/28 02:38:05;;;;;;;7.92;4.33;;;29.10;99.50;;;;;;1812888;79;22099;-71
2022/08/28 02:40:37;;;;;;;6.62;4.22;;;29.20;99.50;;;;;;1815003;78;21254;-71
2022/08/28 02:43:08;;;;;;;5.22;3.77;;;29.20;99.60;;;;;;1824889;78;21657;-72
2022/08/28 02:45:39;;;;;;;6.75;4.03;;;29.20;99.50;;;;;;1750752;80;21274;-72
2022/08/28 02:48:10;;;;;;;5.78;4.17;;;29.30;99.10;;;;;;1814133;78;22264;-72
2022/08/28 02:50:44;;;;;;;7.55;4.10;;;29.30;98.90;;;;;;1811456;78;21135;-71
2022/08/28 02:53:19;;;;;;;6.65;4.40;;;29.40;98.80;;;;;;1849814;74;21277;-72
2022/08/28 02:55:55;;;;;;;4.92;4.20;;;29.40;98.50;;;;;;1912857;74;21188;-72
2022/08/28 02:58:39;;;;;;;6.72;4.70;;;29.50;98.40;;;;;;1919109;74;21700;-72
2022/08/28 03:01:05;;;;;;;5.70;4.00;;;29.50;98.40;;;;;;1881901;76;21199;-72
2022/08/28 03:03:40;;;;;;;5.72;4.30;;;29.60;98.00;;;;;;1895385;74;21116;-72
2022/08/28 03:06:12;;;;;;;7.42;4.90;;;29.70;98.30;;;;;;1925823;74;21096;-72
2022/08/28 03:08:44;;;;;;;7.28;4.60;;;29.80;98.30;;;;;;1922126;74;21189;-72
2022/08/28 03:11:15;;;;;;;6.50;4.30;;;29.90;97.60;;;;;;1922683;74;21145;-71
2022/08/28 03:13:46;;;;;;;5.85;3.92;;;30.00;97.90;;;;;;1917120;74;21741;-71
2022/08/28 03:16:18;;;;;;;9.35;4.45;;;30.00;98.00;;;;;;1922926;74;21807;-71
2022/08/28 03:18:49;;;;;;;8.05;4.30;;;30.00;97.80;;;;;;1905824;75;21150;-72
2022/08/28 03:21:20;;;;;;;7.20;4.28;;;30.00;97.70;;;;;;1894454;75;21064;-71
2022/08/28 03:23:51;;;;;;;6.42;4.25;;;30.00;97.70;;;;;;1911004;74;21072;-71
2022/08/28 03:26:23;;;;;;;6.78;3.90;;;29.90;97.40;;;;;;1898830;75;21111;-71
2022/08/28 03:28:56;;;;;;;9.43;4.50;;;29.90;97.20;;;;;;1900471;74;21844;-71
2022/08/28 03:31:32;;;;;;;7.58;4.62;;;29.90;97.00;;;;;;1922084;74;21213;-71
2022/08/28 03:34:03;;;;;;;8.13;4.67;;;29.90;97.20;;;;;;1919457;74;21122;-71
2022/08/28 03:36:34;;;;;;;9.75;4.42;;;29.90;97.10;;;;;;1917016;75;21661;-71
2022/08/28 03:39:06;;;;;;;7.35;4.60;;;29.90;97.10;;;;;;1915296;74;21189;-72
2022/08/28 03:41:40;;;;;;;10.15;5.08;;;29.90;97.00;;;;;;1910317;75;21169;-71
2022/08/28 03:44:11;;;;;;;9.15;4.78;;;29.90;97.30;;;;;;1909415;75;21175;-71
2022/08/28 03:46:41;;;;;;;5.50;4.03;;;29.90;97.30;;;;;;1910660;74;21662;-72
2022/08/28 03:49:13;;;;;;;6.65;4.85;;;29.90;97.30;;;;;;1910696;75;21669;-71
2022/08/28 03:51:44;;;;;;;5.92;4.00;;;29.90;97.00;;;;;;1907541;75;21122;-72
2022/08/28 03:54:15;;;;;;;5.20;4.05;;;30.00;97.30;;;;;;1912869;75;21225;-71
2022/08/28 03:56:46;;;;;;;7.67;4.80;;;30.20;97.40;;;;;;1912436;74;21119;-71
2022/08/28 03:59:20;;;;;;;7.70;4.47;;;30.50;97.00;;;;;;1933838;74;21715;-71
2022/08/28 04:01:54;;;;;;;9.43;4.75;;;30.80;97.00;;;;;;1935455;74;21711;-72
2022/08/28 04:04:25;;;;;;;5.55;4.08;;;31.00;96.50;;;;;;1932910;74;21625;-72
2022/08/28 04:06:56;;;;;;;5.80;4.67;;;31.40;95.70;;;;;;1917829;74;21985;-71
2022/08/28 04:09:30;;;;;;;6.60;4.28;;;31.50;95.20;;;;;;1901498;75;21159;-71
2022/08/28 04:12:01;;;;;;;6.78;4.05;;;31.70;94.20;;;;;;1903987;75;21213;-71
2022/08/28 04:14:32;;;;;;;7.12;4.30;;;31.90;95.00;;;;;;1906777;74;21147;-72
2022/08/28 04:17:06;;;;;;;6.67;4.25;;;32.10;94.10;;;;;;1896841;75;21076;-71
2022/08/28 04:19:38;;;;;;;7.90;4.00;;;32.30;93.70;;;;;;1906563;75;21587;-72
2022/08/28 04:22:09;;;;;;;7.35;3.85;;;32.50;92.80;;;;;;1888341;76;22268;-72
2022/08/28 04:24:45;;;;;;;5.62;4.25;;;32.60;93.50;;;;;;1905533;74;21769;-71
2022/08/28 04:27:19;;;;;;;5.25;4.00;;;32.90;93.80;;;;;;1899642;74;21281;-71
2022/08/28 04:29:50;;;;;;;5.17;3.67;;;32.90;92.20;;;;;;1913244;74;21096;-71
2022/08/28 04:32:22;;;;;;;7.37;3.60;;;33.00;91.60;;;;;;1906007;74;21192;-71
2022/08/28 04:34:53;;;;;;;5.50;3.80;;;33.20;91.70;;;;;;1893318;75;21084;-72
2022/08/28 04:37:24;;;;;;;4.85;3.72;;;33.30;91.60;;;;;;1905509;74;21665;-71
2022/08/28 04:39:56;;;;;;;5.83;3.70;;;33.20;90.80;;;;;;1917743;74;21170;-71
2022/08/28 04:42:27;;;;;;;5.53;3.58;;;33.10;91.00;;;;;;1903606;75;21151;-71
2022/08/28 04:44:59;;;;;;;5.53;3.87;;;32.90;91.50;;;;;;1898723;75;21859;-71
2022/08/28 04:47:29;;;;;;;7.10;3.70;;;32.60;91.70;;;;;;1903380;74;21191;-71
2022/08/28 04:50:01;;;;;;;6.70;3.47;;;32.40;92.00;;;;;;1910353;74;21147;-71
2022/08/28 04:52:32;;;;;;;6.55;3.77;;;32.50;91.90;;;;;;1907562;75;21592;-71
2022/08/28 04:55:04;;;;;;;6.45;3.55;;;32.60;92.10;;;;;;1906376;75;21619;-71
2022/08/28 04:57:37;;;;;;;7.10;3.30;;;32.80;91.90;;;;;;1892460;75;21193;-71
2022/08/28 05:00:10;;;;;;;5.85;3.70;;;33.00;91.10;;;;;;1898801;74;21129;-71
2022/08/28 05:02:41;;;;;;;4.60;3.42;;;33.10;91.00;;;;;;1913023;74;21499;-71
2022/08/28 05:05:12;;;;;;;5.97;3.45;;;33.20;90.80;;;;;;1905342;75;21261;-70
2022/08/28 05:07:43;;;;;;;6.60;4.15;;;33.10;90.50;;;;;;1908433;74;21623;-71
2022/08/28 05:10:14;;;;;;;5.00;3.40;;;33.00;91.10;;;;;;1921797;74;21059;-71
2022/08/28 05:12:45;;;;;;;6.55;3.40;;;32.90;91.60;;;;;;1901684;74;21116;-72
2022/08/28 05:15:16;;;;;;;4.92;3.80;;;32.70;91.30;;;;;;1900422;75;21615;-72
2022/08/28 05:17:48;;;;;;;8.55;3.10;;;32.60;91.20;;;;;;1907632;75;21120;-72
2022/08/28 05:20:19;;;;;;;5.25;3.25;;;32.50;91.50;;;;;;1906298;74;21096;-71
2022/08/28 05:22:50;;;;;;;5.05;3.25;;;32.40;91.50;;;;;;1907235;74;21206;-71
2022/08/28 05:25:21;;;;;;;7.40;3.33;;;32.40;91.30;;;;;;1907608;75;21667;-72
2022/08/28 05:27:52;;;;;;;4.12;2.50;;;32.40;91.40;;;;;;1907791;75;21128;-72
2022/08/28 05:30:23;;;;;;;3.52;2.45;;;32.40;91.70;;;;;;1907878;75;21135;-71
2022/08/28 05:32:54;;;;;;;3.90;2.70;;;32.50;91.80;;;;;;1921421;74;21217;-70
2022/08/28 05:35:27;;;;;;;4.33;2.65;;;32.60;91.10;;;;;;1906056;74;21077;-71
2022/08/28 05:37:59;;;;;;;4.75;2.72;;;32.80;90.60;;;;;;1912773;75;21045;-71
2022/08/28 05:40:30;;;;;;;6.33;2.80;;;32.90;91.00;;;;;;1904718;75;21650;-71
2022/08/28 05:43:02;;;;;;;4.25;2.85;;;33.00;90.90;;;;;;1916517;75;21179;-71
2022/08/28 05:45:32;;;;;;;5.75;2.83;;;33.10;91.00;;;;;;1920928;74;21185;-71
2022/08/28 05:48:05;;;;;;;4.22;2.50;;;33.20;90.70;;;;;;1916259;75;21199;-71
2022/08/28 05:50:38;;;;;;;5.00;2.70;;;33.40;90.20;;;;;;1917023;74;21715;-71
2022/08/28 05:53:11;;;;;;;3.00;2.30;;;33.40;89.80;;;;;;1923014;74;21146;-71
2022/08/28 05:55:41;;;;;;;5.62;3.15;;;33.50;89.40;;;;;;1926354;74;21099;-71
2022/08/28 06:00:46;;;;;;;5.33;2.77;;;33.60;89.40;;;;;;1912925;75;21544;-72
2022/08/28 06:03:17;;;;;;;5.25;3.40;;;33.80;88.40;;;;;;1910048;74;21408;-72
2022/08/28 06:05:51;;;;;;;3.77;2.67;;;33.80;88.30;;;;;;1923057;74;21193;-72
2022/08/28 06:08:22;;;;;;;8.55;3.15;;;33.90;88.00;;;;;;1919859;74;21120;-72
2022/08/28 06:10:53;;;;;;;2.72;1.72;;;34.00;84.50;;;;;;1915278;74;21612;-70
2022/08/28 06:13:24;;;;;;;2.75;1.70;;;34.10;83.40;;;;;;1914314;74;21563;-69
2022/08/28 06:15:55;;;;;;;2.35;1.50;;;34.20;81.10;;;;;;1907475;74;21087;-73
2022/08/28 06:18:27;;;;;;;3.47;1.80;;;34.20;80.50;;;;;;1918859;74;21261;-71
2022/08/28 06:21:02;;;;;;;3.05;1.55;;;34.20;80.20;;;;;;1917658;74;21154;-71
2022/08/28 06:23:34;;;;;;;2.85;1.90;;;34.10;80.00;;;;;;1921259;74;21648;-72
2022/08/28 06:26:07;;;;;;;3.77;1.77;;;34.20;85.20;;;;;;1915209;75;21076;-72
2022/08/28 06:28:37;;;;;;;2.33;1.62;;;34.30;80.60;;;;;;1907549;75;21242;-72
2022/08/28 06:31:08;;;;;;;4.92;1.80;;;34.30;79.10;;;;;;1900648;74;21195;-72
2022/08/28 06:33:41;;;;;;;4.72;2.02;;;34.40;78.00;;;;;;1918389;74;21111;-72
2022/08/28 06:36:12;;;;;;;5.12;2.00;;;34.40;81.90;;;;;;1907334;74;21147;-72
2022/08/28 06:38:45;;;;;;;4.80;2.42;;;34.30;82.40;;;;;;1917416;74;21200;-71
2022/08/28 06:41:15;;;;;;;3.25;2.40;;;34.20;83.00;;;;;;1908961;74;21599;-71
2022/08/28 06:43:46;;;;;;;4.08;2.47;;;34.00;83.70;;;;;;1883727;75;21131;-71
2022/08/28 06:46:17;;;;;;;3.52;1.92;;;33.80;84.30;;;;;;1898255;75;21140;-71
2022/08/28 06:48:49;;;;;;;3.80;2.35;;;33.60;85.30;;;;;;1905751;74;21143;-71
2022/08/28 06:51:20;;;;;;;4.75;2.00;;;33.40;86.30;;;;;;1894849;75;21170;-71
2022/08/28 06:53:52;;;;;;;2.90;2.02;;;33.30;86.20;;;;;;1890912;75;21127;-71
2022/08/28 06:56:23;;;;;;;4.05;2.42;;;33.10;87.00;;;;;;1899665;75;21120;-71
2022/08/28 06:58:57;;;;;;;4.90;2.33;;;33.00;87.80;;;;;;1856042;77;21135;-71
2022/08/28 07:01:31;;;;;;;3.35;2.22;;;32.90;86.50;;;;;;1885875;75;21709;-71
2022/08/28 07:04:04;;;;;;;5.15;2.77;;;32.80;86.20;;;;;;1899455;75;21064;-71
2022/08/28 07:06:38;;;;;;;4.72;2.90;;;32.70;87.20;;;;;;1898566;75;21742;-71
2022/08/28 07:09:11;;;;;;;6.70;3.50;;;32.60;88.80;;;;;;1878090;75;21208;-71
2022/08/28 07:11:45;;;;;;;5.40;2.80;;;32.60;89.80;;;;;;1896507;75;21131;-71
2022/08/28 07:14:16;;;;;;;3.62;2.70;;;32.60;89.00;;;;;;1892980;75;21113;-71
2022/08/28 07:16:47;;;;;;;5.37;2.87;;;32.70;88.40;;;;;;1868262;77;21132;-71
2022/08/28 07:19:19;;;;;;;4.65;3.08;;;32.80;88.40;;;;;;1870464;76;21094;-71
2022/08/28 07:21:50;;;;;;;3.25;2.37;;;32.80;88.70;;;;;;1891597;75;21124;-72
2022/08/28 07:24:22;;;;;;;4.55;2.17;;;32.80;86.40;;;;;;1846053;77;21132;-72
2022/08/28 07:26:53;;;;;;;5.08;2.30;;;32.90;85.80;;;;;;1876151;75;21128;-71
2022/08/28 07:29:23;;;;;;;3.10;2.52;;;32.90;86.00;;;;;;1892869;75;21111;-71
2022/08/28 07:31:57;;;;;;;2.60;2.00;;;32.80;86.10;;;;;;1886344;75;21056;-71
2022/08/28 07:34:27;;;;;;;3.55;2.45;;;32.80;86.40;;;;;;1893890;75;21113;-71
2022/08/28 07:37:02;;;;;;;5.12;2.70;;;32.80;87.40;;;;;;1885344;75;21084;-72
2022/08/28 07:39:31;;;;;;;6.17;2.80;;;32.80;88.40;;;;;;1872844;75;21272;-71
2022/08/28 07:42:03;;;;;;;6.75;2.90;;;32.90;88.00;;;;;;1878564;75;21164;-72
2022/08/28 07:47:10;;;;;;;4.35;2.85;;;32.90;89.30;;;;;;1914187;74;21084;-71
2022/08/28 07:49:41;;;;;;;4.97;2.77;;;33.00;89.20;;;;;;1922947;74;21620;-72
2022/08/28 07:52:13;;;;;;;4.42;2.67;;;33.00;88.60;;;;;;1919152;74;21131;-72
2022/08/28 07:54:44;;;;;;;4.55;2.60;;;33.10;88.40;;;;;;1912159;74;21659;-72
2022/08/28 07:57:16;;;;;;;3.92;2.80;;;33.10;87.50;;;;;;1915076;74;21206;-72
2022/08/28 07:59:49;;;;;;;3.10;2.55;;;33.20;87.70;;;;;;1924549;74;21188;-72
2022/08/28 08:02:19;;;;;;;4.62;3.05;;;33.30;87.00;;;;;;1924007;74;21634;-72
2022/08/28 08:04:50;;;;;;;3.62;2.80;;;33.30;87.10;;;;;;1923158;74;21193;-72
2022/08/28 08:07:22;;;;;;;5.12;2.25;;;33.30;87.50;;;;;;1918902;74;21571;-72
2022/08/28 08:09:53;;;;;;;4.10;2.62;;;33.30;87.40;;;;;;1919293;74;21119;-72
2022/08/28 08:12:25;;;;;;;3.77;3.00;;;33.30;87.60;;;;;;1922551;74;21758;-72
2022/08/28 08:14:57;;;;;;;3.35;2.30;;;33.30;87.80;;;;;;1922147;74;21084;-72
2022/08/28 08:17:28;;;;;;;5.03;2.83;;;33.20;87.70;;;;;;1918006;74;21099;-72
2022/08/28 08:20:00;;;;;;;4.95;2.10;;;33.30;87.20;;;;;;1923174;74;21162;-72
2022/08/28 08:22:49;;;;;;;5.12;2.62;;;33.30;87.10;;;;;;1922524;74;21602;-72
2022/08/28 08:25:21;;;;;;;6.22;2.30;;;33.30;86.70;;;;;;1875643;76;21718;-72
2022/08/28 08:27:52;;;;;;;5.25;1.95;;;33.40;86.80;;;;;;1912607;75;21111;-72
2022/08/28 08:30:23;;;;;;;3.90;1.70;;;33.40;83.80;;;;;;1911784;75;21590;-72
2022/08/28 08:32:55;;;;;;;3.00;2.02;;;33.40;83.00;;;;;;1905645;73;21052;-70
2022/08/28 08:35:26;;;;;;;3.40;1.80;;;33.40;83.10;;;;;;1950228;73;21148;-71
2022/08/28 08:37:57;;;;;;;4.10;2.15;;;33.40;82.80;;;;;;1920775;73;21170;-72
2022/08/28 08:40:29;;;;;;;2.75;1.80;;;33.40;83.30;;;;;;1916763;75;21111;-72
2022/08/28 08:43:02;;;;;;;3.37;2.12;;;33.40;81.90;;;;;;1916309;75;21092;-70
2022/08/28 08:45:36;;;;;;;2.75;2.10;;;33.40;81.40;;;;;;1885158;75;21547;-71
2022/08/28 08:48:12;;;;;;;4.28;1.90;;;33.30;82.70;;;;;;1831415;78;21069;-73
2022/08/28 08:50:41;;;;;;;3.00;1.92;;;33.30;83.40;;;;;;1882845;75;21178;-72
2022/08/28 08:53:17;;;;;;;3.25;2.08;;;33.30;84.00;;;;;;1903549;75;21185;-72
2022/08/28 08:55:49;;;;;;;;;;;33.30;84.10;;;;;;1906546;75;21209;-72
2022/08/28 08:58:22;;;;;;;5.65;2.42;;;33.30;84.60;;;;;;1909017;75;20229;-72
2022/08/28 09:00:55;;;;;;;4.35;2.50;;;33.30;84.30;;;;;;1889521;75;21633;-73
2022/08/28 09:03:28;;;;;;;4.33;2.15;;;33.30;85.30;;;;;;1896246;75;21190;-72
2022/08/28 09:06:01;;;;;;;3.92;2.40;;;33.20;85.30;;;;;;1903417;73;21625;-71
2022/08/28 09:08:35;;;;;;;5.25;2.45;;;33.20;86.20;;;;;;1893485;75;21626;-72
2022/08/28 09:11:10;;;;;;;4.35;2.30;;;33.20;86.40;;;;;;1898749;75;21152;-71
2022/08/28 09:13:44;;;;;;;4.17;2.77;;;33.10;86.10;;;;;;1881022;75;21543;-72
2022/08/28 09:16:17;;;;;;;3.83;2.42;;;33.10;86.30;;;;;;1913769;73;21717;-72
2022/08/28 09:18:49;;;;;;;2.50;2.12;;;33.10;86.90;;;;;;1893868;73;21117;-71
2022/08/28 09:21:24;;;;;;;3.42;2.20;;;33.00;87.00;;;;;;1928345;73;21158;-71
2022/08/28 09:23:58;;;;;;;3.45;2.50;;;33.00;87.10;;;;;;1905562;74;21774;-71
2022/08/28 09:26:29;;;;;;;4.75;2.72;;;33.00;87.50;;;;;;1875684;75;21586;-71
2022/08/28 09:29:04;;;;;;;4.67;2.70;;;33.00;87.60;;;;;;1893528;75;21591;-73
2022/08/28 09:31:37;;;;;;;4.37;2.55;;;33.00;87.70;;;;;;1921680;74;21552;-72
2022/08/28 09:34:10;;;;;;;3.60;2.67;;;33.00;87.30;;;;;;1918180;74;21151;-70
2022/08/28 09:36:42;;;;;;;4.03;2.40;;;33.00;87.30;;;;;;1933327;74;21684;-71
2022/08/28 09:39:14;;;;;;;5.42;2.58;;;33.00;87.70;;;;;;1915501;74;21272;-73
2022/08/28 09:44:18;;;;;;;3.92;2.20;;;32.90;87.60;;;;;;1910153;74;21685;-72
2022/08/28 09:46:51;;;;;;;3.62;2.22;;;32.80;87.60;;;;;;1926179;74;21123;-72
2022/08/28 09:49:24;;;;;;;3.77;2.40;;;32.80;87.80;;;;;;1913494;74;21127;-72
2022/08/28 09:52:00;;;;;;;3.58;2.22;;;32.80;87.20;;;;;;1920114;74;21131;-72
2022/08/28 09:54:32;;;;;;;5.53;2.50;;;32.80;86.80;;;;;;1922470;74;21167;-72
2022/08/28 09:57:03;;;;;;;5.37;2.05;;;32.80;86.70;;;;;;1918430;74;21233;-71
2022/08/28 09:59:34;;;;;;;2.90;2.00;;;32.80;86.70;;;;;;1934055;74;21100;-70
2022/08/28 10:02:09;;;;;;;3.12;2.20;;;32.70;86.90;;;;;;1922689;74;21661;-71
2022/08/28 10:04:43;;;;;;;5.03;1.90;;;32.70;87.30;;;;;;1917536;74;21687;-71
2022/08/28 10:07:15;;;;;;;3.17;2.05;;;32.60;87.80;;;;;;1916139;74;21253;-69
2022/08/28 10:09:48;;;;;;;4.58;2.83;;;32.60;88.00;;;;;;1922576;72;21279;-71
2022/08/28 10:12:21;;;;;;;7.03;2.62;;;32.60;88.20;;;;;;1887447;75;21085;-71
2022/08/28 10:14:55;;;;;;;4.22;2.25;;;32.60;88.50;;;;;;1879760;75;21092;-71
2022/08/28 10:17:29;;;;;;;3.40;2.27;;;32.50;88.80;;;;;;1928579;74;21098;-71
2022/08/28 10:20:02;;;;;;;4.70;2.62;;;32.50;88.90;;;;;;1914020;74;21170;-71
2022/08/28 10:22:34;;;;;;;3.42;2.20;;;32.50;88.70;;;;;;1924585;74;21252;-71
2022/08/28 10:25:06;;;;;;;3.80;2.10;;;32.40;89.80;;;;;;1909031;74;21572;-71
2022/08/28 10:27:39;;;;;;;5.12;2.22;;;32.40;89.10;;;;;;1890884;74;21104;-73
2022/08/28 10:30:13;;;;;;;6.03;2.98;;;32.40;89.60;;;;;;1887055;74;21160;-71
2022/08/28 10:32:47;;;;;;;4.05;2.70;;;32.30;89.90;;;;;;1902549;73;21774;-72
2022/08/28 10:35:24;;;;;;;3.17;2.17;;;32.30;90.00;;;;;;1895306;74;21120;-71
2022/08/28 10:38:00;;;;;;;3.50;2.70;;;32.30;90.10;;;;;;1896239;75;21628;-72
2022/08/28 10:40:37;;;;;;;3.92;2.75;;;32.30;90.30;;;;;;1894819;74;21246;-71
2022/08/28 10:43:11;;;;;;;5.30;3.33;;;32.30;90.40;;;;;;1894703;74;21114;-71
2022/08/28 10:45:42;;;;;;;4.70;3.33;;;32.20;90.50;;;;;;1880503;75;21109;-71
2022/08/28 10:48:17;;;;;;;3.72;2.75;;;32.20;90.60;;;;;;1879850;75;21175;-71
2022/08/28 10:50:53;;;;;;;6.53;3.12;;;32.20;90.60;;;;;;1893661;73;21200;-72
2022/08/28 10:53:29;;;;;;;6.00;3.45;;;32.30;91.00;;;;;;1887154;73;21660;-71
2022/08/28 10:56:03;;;;;;;10.13;6.30;;;32.20;90.70;;;;;;1885995;75;21116;-71
2022/08/28 10:58:36;;;;;;;6.28;4.62;;;32.20;90.80;;;;;;1884498;75;21156;-72
2022/08/28 11:01:10;;;;;;;4.75;3.08;;;32.20;90.70;;;;;;1907173;73;21131;-72
2022/08/28 11:03:46;;;;;;;4.78;3.00;;;32.10;90.80;;;;;;1893899;75;21129;-72
2022/08/28 11:06:17;;;;;;;;;;;32.10;90.80;;;;;;1887007;75;21222;-71
2022/08/28 11:08:50;;;;;;;6.15;3.17;;;32.10;90.90;;;;;;1818629;76;20632;-71
2022/08/28 11:11:24;;;;;;;4.97;3.10;;;32.10;91.10;;;;;;1816219;77;21258;-83
2022/08/28 11:13:58;;;;;;;4.90;3.15;;;32.00;91.20;;;;;;1815446;77;21195;-83
2022/08/28 11:16:30;;;;;;;6.22;3.62;;;32.00;91.30;;;;;;1826779;76;21139;-84
2022/08/28 11:19:03;;;;;;;4.55;3.10;;;32.00;91.40;;;;;;1837184;76;21136;-84
2022/08/28 11:24:25;;;;;;;4.55;3.05;;;31.90;91.50;;;;;;1841416;77;21109;-84
2022/08/28 11:27:11;;;;;;;7.10;3.42;;;31.90;91.50;;;;;;1897568;75;21569;-84
2022/08/28 11:30:37;;;;;;;;;;;;;;;;;;;;;
2022/08/28 11:32:24;;;;;;;5.35;3.33;;;31.80;91.60;;;;;;1857226;74;21507;-83
2022/08/28 11:35:03;;;;;;;6.10;3.65;;;31.90;91.60;;;;;;1902928;75;21136;-83
2022/08/28 11:37:44;;;;;;;5.50;3.20;;;31.90;91.70;;;;;;1883161;75;21123;-83
2022/08/28 11:40:17;;;;;;;6.50;3.30;;;31.80;91.70;;;;;;1882205;75;21525;-83
2022/08/28 11:42:48;;;;;;;5.22;3.17;;;31.80;91.80;;;;;;1879897;75;21287;-83
2022/08/28 11:45:34;;;;;;;7.70;3.40;;;31.80;91.80;;;;;;1879563;75;21195;-84
2022/08/28 11:48:06;;;;;;;5.25;3.08;;;31.80;91.70;;;;;;1880770;75;21160;-83
2022/08/28 11:50:41;;;;;;;7.53;3.58;;;31.80;91.80;;;;;;1875430;75;21176;-84
2022/08/28 11:53:16;;;;;;;4.90;3.17;;;31.70;91.80;;;;;;1875130;75;21611;-84
2022/08/28 11:55:51;;;;;;;6.67;4.20;;;31.70;91.90;;;;;;1776129;80;21199;-83
2022/08/28 12:02:01;;;;;;;7.90;4.10;;;31.70;91.90;;;;;;1669743;85;21680;-82
2022/08/28 12:08:26;;;;;;;7.03;4.80;;;31.70;92.10;;;;;;1922838;73;22673;-83
2022/08/28 12:10:58;;;;;;;7.30;4.62;;;31.60;91.90;;;;;;1897325;75;21193;-83
2022/08/28 12:16:54;;;;;;;8.70;4.87;;;31.60;92.20;;;;;;1719442;82;21171;-83
2022/08/28 12:19:29;;;;;;;7.12;4.40;;;31.60;92.30;;;;;;1735248;82;21163;-83
2022/08/28 12:26:09;;;;;;;8.57;5.60;;;31.50;92.40;;;;;;1600225;87;21282;-83
2022/08/28 12:29:12;;;;;;;;;;;;;;;;;;;;;
2022/08/28 12:34:27;;;;;;;13.60;8.85;;;31.40;92.90;;;;;;1943151;73;22188;-84
2022/08/28 12:36:57;;;;;;;25.00;15.28;;;31.50;93.20;;;;;;1899234;75;21145;-86
2022/08/28 12:45:53;;;;;;;14.25;7.90;;;31.30;93.70;;;;;;1632271;83;21225;-86
2022/08/28 12:59:07;;;;;;;11.25;6.55;;;31.20;93.90;;;;;;1894894;75;22722;-86
2022/08/28 13:01:43;;;;;;;13.32;6.15;;;31.00;94.50;;;;;;1857103;76;21167;-85
2022/08/28 13:04:41;;;;;;;10.13;5.70;;;30.90;94.40;;;;;;1870928;76;21126;-85
2022/08/28 13:07:20;;;;;;;8.28;5.97;;;30.80;94.40;;;;;;1839152;78;21113;-87
2022/08/28 13:12:42;;;;;;;8.83;5.62;;;30.70;94.90;;;;;;1799368;80;21255;-85
2022/08/28 13:15:15;;;;;;;12.43;5.65;;;30.70;95.20;;;;;;1796800;80;21108;-85
2022/08/28 13:17:53;;;;;;;10.80;5.90;;;30.60;95.70;;;;;;1788227;79;21298;-85
2022/08/28 13:23:49;;;;;;;11.33;6.75;;;30.50;95.60;;;;;;1764775;80;20196;-86
2022/08/28 13:26:22;;;;;;;11.83;6.15;;;30.40;96.00;;;;;;1777623;80;21125;-85
2022/08/28 13:28:55;;;;;;;10.43;6.20;;;30.40;96.30;;;;;;1779572;80;21204;-85
2022/08/28 13:31:26;;;;;;;12.10;6.20;;;30.40;96.30;;;;;;1773461;80;21646;-86
2022/08/28 13:34:00;;;;;;;11.75;5.65;;;30.40;96.10;;;;;;1764485;81;21158;-85
2022/08/28 13:36:36;;;;;;;6.80;5.35;;;30.50;96.30;;;;;;1763752;81;21240;-86
2022/08/28 13:39:08;;;;;;;8.08;5.72;;;30.50;96.10;;;;;;1769133;80;21252;-85
2022/08/28 13:41:39;;;;;;;8.88;5.70;;;30.50;96.40;;;;;;1742886;81;21529;-85
2022/08/28 13:44:13;;;;;;;9.68;6.12;;;30.50;96.50;;;;;;1774096;80;21140;-85
2022/08/28 13:46:43;;;;;;;10.53;5.83;;;30.40;96.50;;;;;;1768874;81;21213;-85
2022/08/28 13:49:15;;;;;;;11.55;6.50;;;30.40;96.50;;;;;;1770246;80;21239;-85
2022/08/28 13:51:47;;;;;;;9.93;5.45;;;30.40;96.40;;;;;;1767870;80;21168;-85
2022/08/28 13:54:19;;;;;;;12.70;5.75;;;30.40;96.50;;;;;;1767290;80;21185;-85
2022/08/28 13:56:50;;;;;;;12.15;5.97;;;30.40;96.70;;;;;;1766524;80;21192;-85
2022/08/28 13:59:26;;;;;;;12.33;5.58;;;30.40;96.80;;;;;;1750090;81;21123;-86
2022/08/28 14:04:35;;;;;;;12.25;6.00;;;30.40;96.80;;;;;;1769487;80;21211;-86
2022/08/28 14:07:07;;;;;;;10.40;5.70;;;30.40;96.70;;;;;;1768210;80;21182;-86
2022/08/28 14:09:38;;;;;;;8.23;5.85;;;30.40;96.70;;;;;;1763065;80;21189;-85
2022/08/28 14:12:13;;;;;;;12.60;6.47;;;30.40;96.70;;;;;;1764886;81;21126;-85
2022/08/28 14:14:55;;;;;;;10.18;5.92;;;30.40;97.00;;;;;;1755624;80;21198;-85
2022/08/28 14:17:27;;;;;;;14.35;6.37;;;30.30;97.00;;;;;;1799603;79;21185;-85
2022/08/28 14:19:59;;;;;;;12.43;6.10;;;30.30;97.00;;;;;;1801847;79;21164;-85
2022/08/28 14:22:33;;;;;;;9.50;5.35;;;30.40;97.00;;;;;;1803767;79;21190;-85
2022/08/28 14:25:08;;;;;;;8.78;5.62;;;30.30;96.90;;;;;;1808091;79;21256;-85
2022/08/28 14:27:40;;;;;;;9.78;5.15;;;30.30;97.50;;;;;;1801909;79;21160;-86
2022/08/28 14:30:11;;;;;;;9.80;4.80;;;30.30;96.90;;;;;;1803253;79;21147;-86
2022/08/28 14:36:06;;;;;;;10.53;5.50;;;30.30;96.90;;;;;;1741823;81;21142;-85
2022/08/28 14:38:41;;;;;;;7.12;5.40;;;30.30;96.90;;;;;;1744848;81;21331;-85
2022/08/28 14:41:27;;;;;;;10.78;5.47;;;30.30;97.00;;;;;;1750593;81;21212;-86
2022/08/28 14:43:59;;;;;;;8.35;4.97;;;30.30;97.10;;;;;;1729698;82;21229;-87